createdAt,value
2022-08-24T00:01:17.920Z,4.57
2022-08-24T00:03:46.822Z,5.00
2022-08-24T00:06:17.674Z,4.57
2022-08-24T00:08:45.842Z,5.30
2022-08-24T00:11:14.017Z,4.83
2022-08-24T00:13:42.505Z,5.00
2022-08-24T00:16:12.654Z,6.27
2022-08-24T00:18:41.374Z,5.20
2022-08-24T00:21:10.067Z,4.70
2022-08-24T00:23:38.125Z,5.37
2022-08-24T00:26:06.641Z,5.53
2022-08-24T00:28:35.071Z,4.80
2022-08-24T00:31:03.587Z,5.10
2022-08-24T00:33:35.067Z,4.93
2022-08-24T00:36:03.415Z,4.90
2022-08-24T00:38:35.552Z,4.77
2022-08-24T00:41:04.793Z,4.73
2022-08-24T00:43:34.047Z,4.80
2022-08-24T00:46:10.954Z,4.50
2022-08-24T00:48:43.628Z,5.50
2022-08-24T00:51:15.895Z,4.90
2022-08-24T00:53:48.983Z,5.17
2022-08-24T00:56:20.546Z,5.27
2022-08-24T00:58:56.916Z,5.53
2022-08-24T01:01:26.389Z,5.83
2022-08-24T01:03:57.229Z,5.10
2022-08-24T01:06:26.064Z,5.67
2022-08-24T01:08:56.408Z,5.40
2022-08-24T01:11:27.554Z,5.80
2022-08-24T01:13:58.069Z,5.10
2022-08-24T01:16:43.876Z,5.50
2022-08-24T01:19:22.330Z,6.97
2022-08-24T01:21:57.476Z,5.13
2022-08-24T01:24:26.865Z,5.53
2022-08-24T01:26:54.948Z,5.83
2022-08-24T01:29:26.552Z,5.60
2022-08-24T01:31:54.784Z,5.67
2022-08-24T01:34:23.013Z,5.53
2022-08-24T01:36:55.988Z,5.30
2022-08-24T01:39:28.470Z,5.60
2022-08-24T01:41:56.914Z,5.23
2022-08-24T01:44:27.641Z,5.30
2022-08-24T01:46:56.755Z,5.40
2022-08-24T01:49:27.866Z,4.80
2022-08-24T01:51:56.063Z,5.87
2022-08-24T01:54:25.373Z,5.63
2022-08-24T01:56:54.922Z,5.67
2022-08-24T01:59:23.756Z,5.50
2022-08-24T02:01:54.909Z,5.60
2022-08-24T02:04:23.519Z,6.73
2022-08-24T02:06:52.016Z,6.20
2022-08-24T02:09:20.081Z,6.60
2022-08-24T02:11:48.526Z,6.97
2022-08-24T02:14:19.312Z,7.07
2022-08-24T02:16:48.102Z,6.63
2022-08-24T02:19:24.107Z,6.73
2022-08-24T02:21:52.539Z,7.17
2022-08-24T02:24:20.621Z,6.10
2022-08-24T02:26:49.217Z,6.63
2022-08-24T02:29:18.757Z,6.23
2022-08-24T02:31:46.818Z,7.40
2022-08-24T02:34:14.897Z,6.90
2022-08-24T02:36:43.203Z,6.37
2022-08-24T02:39:11.352Z,5.50
2022-08-24T02:41:40.262Z,5.83
2022-08-24T02:44:08.570Z,6.50
2022-08-24T02:46:38.062Z,5.83
2022-08-24T02:49:11.121Z,5.73
2022-08-24T02:51:44.475Z,5.17
2022-08-24T02:54:17.728Z,4.80
2022-08-24T02:56:46.621Z,5.97
2022-08-24T02:59:15.483Z,5.90
2022-08-24T03:01:45.363Z,5.80
2022-08-24T03:04:14.455Z,6.00
2022-08-24T03:06:43.024Z,6.00
2022-08-24T03:09:11.307Z,6.07
2022-08-24T03:11:40.283Z,5.60
2022-08-24T03:14:13.245Z,5.43
2022-08-24T03:16:41.517Z,5.93
2022-08-24T03:19:10.985Z,6.53
2022-08-24T03:21:40.122Z,6.33
2022-08-24T03:24:08.455Z,7.00
2022-08-24T03:26:37.209Z,7.07
2022-08-24T03:29:05.230Z,6.00
2022-08-24T03:31:35.577Z,6.93
2022-08-24T03:34:03.657Z,6.97
2022-08-24T03:36:33.117Z,7.30
2022-08-24T03:39:01.160Z,6.77
2022-08-24T03:41:29.382Z,6.50
2022-08-24T03:43:57.748Z,7.40
2022-08-24T03:46:29.169Z,7.30
2022-08-24T03:48:58.862Z,6.70
2022-08-24T03:51:28.947Z,7.03
2022-08-24T03:54:00.176Z,7.33
2022-08-24T03:56:29.841Z,6.40
2022-08-24T03:58:57.962Z,6.57
2022-08-24T04:01:29.608Z,5.20
2022-08-24T04:03:59.215Z,5.53
2022-08-24T04:06:32.001Z,5.90
2022-08-24T04:09:01.757Z,5.90
2022-08-24T04:11:37.457Z,5.30
2022-08-24T04:14:10.340Z,5.40
2022-08-24T04:16:59.768Z,5.80
2022-08-24T04:19:34.904Z,6.90
2022-08-24T04:22:03.188Z,6.63
2022-08-24T04:24:32.657Z,6.77
2022-08-24T04:27:00.811Z,6.23
2022-08-24T04:29:28.891Z,6.70
2022-08-24T04:31:57.976Z,7.20
2022-08-24T04:34:27.798Z,6.37
2022-08-24T04:36:55.975Z,7.13
2022-08-24T04:39:24.041Z,7.23
2022-08-24T04:42:26.698Z,7.30
2022-08-24T04:44:55.458Z,7.70
2022-08-24T04:47:25.338Z,7.57
2022-08-24T04:49:53.863Z,7.03
2022-08-24T04:52:22.112Z,7.33
2022-08-24T04:54:50.416Z,8.03
2022-08-24T04:57:22.331Z,7.33
2022-08-24T04:59:51.905Z,7.60
2022-08-24T05:02:20.984Z,8.60
2022-08-24T05:04:50.655Z,7.10
2022-08-24T05:07:19.754Z,7.30
2022-08-24T05:09:47.770Z,7.13
2022-08-24T05:12:20.872Z,7.93
2022-08-24T05:14:58.598Z,7.67
2022-08-24T05:17:27.407Z,7.77
2022-08-24T05:19:55.624Z,6.90
2022-08-24T05:22:23.662Z,7.43
2022-08-24T05:24:54.912Z,7.73
2022-08-24T05:27:25.228Z,7.57
2022-08-24T05:29:54.800Z,7.67
2022-08-24T05:32:25.315Z,8.40
2022-08-24T05:34:54.677Z,7.60
2022-08-24T05:37:23.450Z,7.67
2022-08-24T05:40:09.257Z,8.47
2022-08-24T05:42:40.374Z,9.00
2022-08-24T05:45:12.787Z,8.77
2022-08-24T05:47:42.332Z,9.17
2022-08-24T05:50:45.729Z,8.50
2022-08-24T05:53:15.274Z,9.27
2022-08-24T05:55:45.015Z,9.50
2022-08-24T05:58:18.527Z,8.67
2022-08-24T06:00:55.322Z,8.80
2022-08-24T06:03:24.818Z,9.40
2022-08-24T06:05:55.060Z,8.90
2022-08-24T06:08:23.857Z,8.80
2022-08-24T06:10:52.173Z,8.53
2022-08-24T06:13:20.259Z,9.03
2022-08-24T06:16:10.949Z,8.50
2022-08-24T06:18:39.221Z,8.40
2022-08-24T06:21:10.272Z,8.00
2022-08-24T06:23:44.109Z,8.63
2022-08-24T06:26:30.544Z,7.93
2022-08-24T06:29:00.391Z,8.37
2022-08-24T06:31:29.012Z,8.50
2022-08-24T06:34:09.639Z,9.20
2022-08-24T06:36:40.071Z,7.70
2022-08-24T06:39:09.561Z,7.70
2022-08-24T06:41:42.660Z,7.77
2022-08-24T06:44:12.816Z,7.77
2022-08-24T06:46:56.842Z,7.93
2022-08-24T06:49:26.377Z,7.70
2022-08-24T06:51:54.654Z,7.90
2022-08-24T06:54:22.884Z,7.40
2022-08-24T06:56:51.337Z,7.43
2022-08-24T06:59:20.986Z,6.70
2022-08-24T07:01:49.233Z,6.70
2022-08-24T07:04:17.350Z,6.93
2022-08-24T07:07:09.903Z,5.70
2022-08-24T07:09:39.168Z,5.90
2022-08-24T07:12:07.944Z,6.90
2022-08-24T07:14:36.864Z,6.40
2022-08-24T07:17:04.974Z,5.80
2022-08-24T07:19:33.930Z,5.17
2022-08-24T07:22:02.554Z,6.27
2022-08-24T07:24:32.348Z,5.60
2022-08-24T07:27:01.164Z,5.00
2022-08-24T07:29:48.495Z,5.43
2022-08-24T07:32:18.220Z,5.30
2022-08-24T07:34:46.981Z,5.13
2022-08-24T07:37:15.067Z,5.40
2022-08-24T07:39:48.726Z,5.57
2022-08-24T07:42:25.577Z,4.67
2022-08-24T07:44:57.840Z,5.40
2022-08-24T07:47:49.550Z,5.10
2022-08-24T07:50:28.215Z,5.40
2022-08-24T07:52:56.284Z,5.00
2022-08-24T07:55:26.236Z,5.23
2022-08-24T07:57:54.758Z,5.53
2022-08-24T08:00:23.586Z,5.20
2022-08-24T08:02:57.636Z,4.60
2022-08-24T08:05:25.980Z,4.27
2022-08-24T08:07:55.364Z,4.70
2022-08-24T08:10:25.443Z,4.87
2022-08-24T08:12:54.554Z,4.80
2022-08-24T08:15:22.824Z,4.33
2022-08-24T08:18:03.301Z,4.63
2022-08-24T08:20:32.468Z,4.70
2022-08-24T08:23:19.157Z,5.10
2022-08-24T08:25:59.460Z,4.60
2022-08-24T08:28:42.629Z,5.20
2022-08-24T08:31:11.146Z,4.73
2022-08-24T08:33:40.667Z,5.00
2022-08-24T08:36:11.344Z,6.90
2022-08-24T08:38:45.336Z,5.87
2022-08-24T08:41:44.098Z,5.07
2022-08-24T08:44:20.225Z,4.90
2022-08-24T08:46:58.112Z,4.60
2022-08-24T08:50:16.293Z,5.03
2022-08-24T08:53:07.576Z,4.77
2022-08-24T08:55:41.445Z,5.30
2022-08-24T08:58:35.267Z,4.80
2022-08-24T09:01:11.010Z,4.77
2022-08-24T09:04:07.168Z,4.50
2022-08-24T09:07:00.373Z,4.90
2022-08-24T09:09:52.295Z,4.90
2022-08-24T09:12:25.319Z,4.90
2022-08-24T09:15:05.457Z,5.00
2022-08-24T09:17:45.754Z,5.00
2022-08-24T09:20:24.972Z,5.07
2022-08-24T09:23:04.804Z,4.70
2022-08-24T09:25:38.633Z,4.60
2022-08-24T09:28:16.228Z,4.50
2022-08-24T09:31:10.918Z,4.83
2022-08-24T09:33:43.286Z,4.77
2022-08-24T09:36:20.088Z,4.50
2022-08-24T09:39:08.917Z,4.80
2022-08-24T09:41:52.890Z,4.60
2022-08-24T09:44:46.395Z,5.30
2022-08-24T09:48:16.081Z,4.40
2022-08-24T09:50:56.473Z,5.23
2022-08-24T09:53:48.973Z,4.90
2022-08-24T09:56:36.327Z,4.70
2022-08-24T09:59:21.686Z,4.37
2022-08-24T10:01:58.602Z,5.25
2022-08-24T10:04:33.433Z,4.40
2022-08-24T10:07:13.156Z,4.10
2022-08-24T10:09:55.541Z,4.67
2022-08-24T10:12:44.201Z,4.17
2022-08-24T10:15:16.385Z,4.13
2022-08-24T10:18:07.823Z,4.33
2022-08-24T10:21:06.281Z,4.87
2022-08-24T10:23:47.335Z,4.50
2022-08-24T10:26:21.077Z,5.10
2022-08-24T10:29:18.480Z,4.27
2022-08-24T10:32:04.042Z,4.47
2022-08-24T10:34:40.890Z,4.37
2022-08-24T10:37:34.349Z,4.50
2022-08-24T10:40:13.756Z,4.50
2022-08-24T10:43:14.819Z,4.00
2022-08-24T10:46:15.210Z,4.33
2022-08-24T10:49:08.616Z,4.67
2022-08-24T10:51:45.902Z,4.23
2022-08-24T10:54:14.586Z,4.43
2022-08-24T10:56:50.391Z,4.23
2022-08-24T10:59:24.356Z,3.90
2022-08-24T11:02:10.025Z,3.97
2022-08-24T11:04:41.717Z,4.10
2022-08-24T11:07:18.451Z,3.77
2022-08-24T11:09:53.518Z,3.53
2022-08-24T11:12:29.851Z,3.67
2022-08-24T11:15:01.249Z,3.87
2022-08-24T11:17:31.182Z,3.30
2022-08-24T11:20:00.247Z,3.70
2022-08-24T11:22:37.846Z,3.73
2022-08-24T11:25:12.241Z,3.80
2022-08-24T11:27:43.456Z,3.37
2022-08-24T11:30:16.101Z,3.40
2022-08-24T11:32:46.560Z,3.70
2022-08-24T11:35:23.699Z,3.27
2022-08-24T11:37:53.422Z,3.57
2022-08-24T11:40:24.221Z,3.40
2022-08-24T11:43:18.219Z,3.80
2022-08-24T11:45:55.929Z,3.33
2022-08-24T11:48:36.104Z,3.30
2022-08-24T11:51:09.417Z,3.00
2022-08-24T11:56:21.403Z,3.57
2022-08-24T11:58:56.204Z,2.67
2022-08-24T12:01:27.428Z,3.40
2022-08-24T12:04:10.572Z,2.90
2022-08-24T12:06:49.074Z,3.20
2022-08-24T12:09:25.249Z,3.00
2022-08-24T12:11:59.731Z,3.00
2022-08-24T12:14:34.879Z,2.90
2022-08-24T12:17:07.524Z,2.90
2022-08-24T12:19:38.786Z,3.23
2022-08-24T12:22:08.673Z,3.27
2022-08-24T12:24:41.129Z,3.30
2022-08-24T12:27:11.803Z,3.60
2022-08-24T12:29:44.632Z,3.40
2022-08-24T12:32:16.027Z,3.10
2022-08-24T12:34:58.051Z,3.00
2022-08-24T12:37:30.169Z,3.23
2022-08-24T12:40:06.734Z,3.00
2022-08-24T12:42:41.220Z,3.40
2022-08-24T12:45:12.654Z,2.90
2022-08-24T12:47:46.460Z,3.17
2022-08-24T12:50:23.246Z,3.13
2022-08-24T12:53:18.679Z,3.70
2022-08-24T12:56:14.803Z,3.20
2022-08-24T12:58:56.381Z,3.30
2022-08-24T13:01:29.726Z,3.40
2022-08-24T13:04:10.606Z,3.40
2022-08-24T13:06:42.422Z,3.27
2022-08-24T13:09:17.091Z,3.20
2022-08-24T13:11:46.715Z,3.03
2022-08-24T13:14:20.827Z,3.30
2022-08-24T13:17:09.908Z,3.30
2022-08-24T13:19:41.053Z,3.17
2022-08-24T13:22:48.106Z,3.10
2022-08-24T13:25:44.796Z,2.80
2022-08-24T13:28:37.746Z,3.40
2022-08-24T13:31:27.282Z,3.13
2022-08-24T13:34:00.751Z,2.90
2022-08-24T13:37:05.959Z,2.83
2022-08-24T13:39:41.813Z,2.90
2022-08-24T13:42:16.969Z,3.00
2022-08-24T13:45:02.767Z,3.10
2022-08-24T13:47:36.005Z,3.20
2022-08-24T13:50:11.610Z,2.80
2022-08-24T13:52:48.241Z,3.33
2022-08-24T13:55:29.866Z,3.00
2022-08-24T13:58:11.415Z,3.20
2022-08-24T14:00:44.010Z,3.17
2022-08-24T14:04:00.079Z,3.30
2022-08-24T14:06:36.948Z,2.97
2022-08-24T14:09:19.779Z,3.13
2022-08-24T14:12:08.447Z,3.00
2022-08-24T14:14:51.362Z,2.97
2022-08-24T14:17:45.054Z,3.43
2022-08-24T14:20:22.200Z,3.23
2022-08-24T14:23:00.470Z,3.30
2022-08-24T14:25:33.197Z,2.80
2022-08-24T14:28:25.454Z,2.97
2022-08-24T14:31:16.734Z,3.30
2022-08-24T14:33:50.905Z,3.10
2022-08-24T14:36:22.089Z,3.20
2022-08-24T14:39:02.359Z,3.00
2022-08-24T14:41:44.354Z,3.60
2022-08-24T14:44:44.863Z,3.47
2022-08-24T14:47:20.592Z,3.17
2022-08-24T14:50:03.161Z,3.00
2022-08-24T14:52:56.877Z,3.27
2022-08-24T14:55:32.273Z,3.70
2022-08-24T14:58:11.351Z,3.40
2022-08-24T15:01:03.952Z,3.23
2022-08-24T15:03:59.650Z,3.10
2022-08-24T15:06:30.667Z,3.27
2022-08-24T15:09:10.649Z,3.40
2022-08-24T15:11:42.524Z,3.20
2022-08-24T15:14:23.558Z,3.10
2022-08-24T15:16:55.458Z,2.83
2022-08-24T15:19:28.735Z,3.40
2022-08-24T15:21:58.360Z,3.30
2022-08-24T15:24:38.576Z,3.17
2022-08-24T15:27:19.308Z,3.10
2022-08-24T15:29:53.450Z,3.20
2022-08-24T15:32:22.885Z,3.20
2022-08-24T15:34:58.404Z,3.10
2022-08-24T15:37:30.145Z,3.20
2022-08-24T15:39:58.802Z,3.00
2022-08-24T15:42:29.499Z,3.03
2022-08-24T15:45:01.952Z,3.00
2022-08-24T15:47:32.321Z,3.07
2022-08-24T15:50:02.157Z,3.10
2022-08-24T15:52:43.812Z,3.07
2022-08-24T15:55:27.713Z,3.70
2022-08-24T15:57:58.703Z,3.20
2022-08-24T16:00:54.208Z,3.20
2022-08-24T16:03:26.090Z,3.00
2022-08-24T16:05:57.090Z,3.60
2022-08-24T16:08:25.347Z,3.07
2022-08-24T16:10:58.676Z,3.03
2022-08-24T16:13:30.415Z,3.10
2022-08-24T16:16:03.043Z,2.90
2022-08-24T16:18:45.934Z,3.10
2022-08-24T16:21:17.524Z,3.00
2022-08-24T16:23:56.265Z,3.27
2022-08-24T16:26:26.927Z,3.27
2022-08-24T16:28:57.136Z,3.17
2022-08-24T16:31:51.838Z,3.30
2022-08-24T16:34:29.066Z,3.30
2022-08-24T16:36:57.340Z,2.87
2022-08-24T16:39:25.622Z,3.20
2022-08-24T16:41:56.098Z,3.00
2022-08-24T16:44:26.841Z,2.80
2022-08-24T16:46:54.870Z,3.37
2022-08-24T16:49:23.020Z,3.00
2022-08-24T16:51:51.065Z,3.07
2022-08-24T16:54:19.660Z,2.83
2022-08-24T16:56:47.720Z,3.30
2022-08-24T16:59:21.870Z,3.13
2022-08-24T17:01:51.330Z,3.63
2022-08-24T17:04:19.424Z,3.50
2022-08-24T17:06:49.603Z,3.10
2022-08-24T17:09:19.422Z,3.63
2022-08-24T17:11:47.647Z,3.67
2022-08-24T17:14:15.926Z,3.60
2022-08-24T17:16:44.110Z,4.30
2022-08-24T17:19:17.010Z,3.30
2022-08-24T17:21:45.648Z,3.60
2022-08-24T17:24:13.821Z,3.30
2022-08-24T17:26:47.521Z,3.63
2022-08-24T17:29:18.589Z,3.50
2022-08-24T17:31:49.851Z,3.50
2022-08-24T17:34:20.914Z,3.63
2022-08-24T17:36:50.817Z,3.57
2022-08-24T17:39:19.795Z,3.60
2022-08-24T17:41:48.578Z,3.57
2022-08-24T17:44:21.042Z,3.50
2022-08-24T17:46:50.525Z,3.17
2022-08-24T17:49:20.322Z,3.53
2022-08-24T17:51:49.663Z,3.83
2022-08-24T17:54:17.772Z,3.30
2022-08-24T17:56:48.753Z,3.60
2022-08-24T17:59:23.571Z,3.40
2022-08-24T18:01:54.462Z,3.03
2022-08-24T18:04:27.587Z,4.00
2022-08-24T18:06:56.776Z,3.80
2022-08-24T18:09:29.589Z,3.20
2022-08-24T18:12:01.241Z,3.63
2022-08-24T18:14:30.399Z,3.27
2022-08-24T18:17:00.008Z,4.70
2022-08-24T18:19:29.471Z,4.37
2022-08-24T18:21:57.510Z,3.90
2022-08-24T18:24:25.981Z,3.63
2022-08-24T18:26:54.061Z,3.60
2022-08-24T18:29:22.890Z,3.57
2022-08-24T18:31:51.174Z,3.60
2022-08-24T18:34:21.768Z,4.17
2022-08-24T18:36:51.355Z,3.70
2022-08-24T18:39:20.081Z,3.30
2022-08-24T18:41:49.289Z,3.90
2022-08-24T18:44:19.990Z,3.60
2022-08-24T18:46:48.993Z,3.60
2022-08-24T18:49:17.629Z,3.80
2022-08-24T18:51:48.120Z,3.83
2022-08-24T18:54:20.130Z,3.43
2022-08-24T18:56:48.196Z,3.77
2022-08-24T18:59:18.490Z,3.80
2022-08-24T19:02:05.544Z,3.90
2022-08-24T19:04:34.227Z,3.60
2022-08-24T19:07:02.288Z,3.67
2022-08-24T19:09:34.341Z,3.20
2022-08-24T19:12:03.485Z,3.80
2022-08-24T19:14:31.785Z,4.10
2022-08-24T19:16:59.819Z,4.20
2022-08-24T19:19:27.955Z,3.67
2022-08-24T19:21:56.465Z,4.03
2022-08-24T19:24:26.147Z,4.00
2022-08-24T19:26:56.211Z,4.20
2022-08-24T19:29:54.576Z,4.00
2022-08-24T19:32:21.758Z,4.30
2022-08-24T19:34:50.722Z,3.90
2022-08-24T19:37:19.233Z,4.10
2022-08-24T19:39:47.810Z,4.47
2022-08-24T19:42:18.145Z,4.30
2022-08-24T19:45:04.472Z,4.50
2022-08-24T19:47:34.513Z,5.00
2022-08-24T19:50:03.039Z,4.07
2022-08-24T19:52:32.940Z,3.80
2022-08-24T19:55:01.193Z,4.63
2022-08-24T19:57:38.397Z,5.07
2022-08-24T20:00:24.662Z,4.80
2022-08-24T20:02:54.409Z,4.43
2022-08-24T20:05:24.717Z,4.00
2022-08-24T20:07:52.848Z,4.10
2022-08-24T20:10:22.678Z,4.57
2022-08-24T20:12:52.499Z,4.80
2022-08-24T20:15:21.441Z,4.93
2022-08-24T20:17:50.119Z,4.00
2022-08-24T20:20:20.369Z,3.77
2022-08-24T20:22:48.769Z,4.63
2022-08-24T20:25:17.207Z,4.63
2022-08-24T20:27:46.593Z,3.70
2022-08-24T20:30:16.713Z,4.30
2022-08-24T20:32:44.871Z,4.00
2022-08-24T20:35:16.114Z,4.30
2022-08-24T20:37:44.171Z,4.20
2022-08-24T20:40:15.923Z,5.27
2022-08-24T20:42:44.204Z,4.87
2022-08-24T20:45:13.970Z,4.90
2022-08-24T20:47:47.689Z,4.17
2022-08-24T20:50:17.570Z,5.00
2022-08-24T20:52:45.656Z,4.70
2022-08-24T20:55:14.521Z,4.77
2022-08-24T20:57:48.086Z,4.50
2022-08-24T21:00:18.291Z,4.40
2022-08-24T21:02:47.949Z,4.70
2022-08-24T21:05:16.083Z,4.80
2022-08-24T21:07:49.501Z,4.90
2022-08-24T21:10:18.645Z,4.87
2022-08-24T21:12:46.630Z,4.90
2022-08-24T21:15:14.658Z,5.87
2022-08-24T21:17:42.940Z,4.77
2022-08-24T21:20:14.710Z,4.80
2022-08-24T21:22:42.807Z,5.40
2022-08-24T21:25:11.509Z,4.93
2022-08-24T21:27:42.106Z,5.37
2022-08-24T21:30:12.051Z,5.37
2022-08-24T21:32:57.751Z,5.23
2022-08-24T21:35:27.148Z,5.63
2022-08-24T21:37:55.428Z,5.43
2022-08-24T21:40:24.415Z,5.00
2022-08-24T21:42:52.697Z,5.10
2022-08-24T21:45:20.796Z,5.07
2022-08-24T21:47:48.806Z,5.47
2022-08-24T21:50:18.223Z,4.90
2022-08-24T21:52:51.230Z,5.07
2022-08-24T21:55:31.687Z,5.80
2022-08-24T21:57:59.705Z,5.33
2022-08-24T22:00:27.764Z,4.87
2022-08-24T22:02:55.881Z,5.27
2022-08-24T22:05:24.006Z,4.50
2022-08-24T22:07:53.376Z,5.57
2022-08-24T22:10:21.747Z,5.20
2022-08-24T22:12:50.108Z,5.20
2022-08-24T22:15:19.654Z,5.40
2022-08-24T22:17:52.847Z,4.80
2022-08-24T22:20:23.324Z,5.00
2022-08-24T22:22:52.991Z,5.07
2022-08-24T22:25:21.112Z,5.90
2022-08-24T22:27:49.719Z,5.47
2022-08-24T22:30:19.250Z,5.40
2022-08-24T22:32:47.684Z,4.73
2022-08-24T22:35:15.983Z,5.10
2022-08-24T22:37:44.020Z,5.27
2022-08-24T22:40:13.897Z,4.80
2022-08-24T22:42:42.190Z,5.70
2022-08-24T22:45:12.010Z,5.53
2022-08-24T22:47:40.132Z,5.60
2022-08-24T22:50:09.468Z,5.27
2022-08-24T22:52:37.557Z,5.50
2022-08-24T22:55:06.128Z,4.93
2022-08-24T22:57:35.602Z,6.50
2022-08-24T23:00:05.082Z,5.70
2022-08-24T23:02:33.119Z,5.53
2022-08-24T23:05:01.607Z,5.77
2022-08-24T23:07:29.616Z,5.87
2022-08-24T23:09:57.654Z,5.87
2022-08-24T23:12:26.460Z,5.37
2022-08-24T23:14:55.992Z,5.53
2022-08-24T23:17:24.299Z,5.73
2022-08-24T23:20:00.612Z,7.17
2022-08-24T23:22:31.290Z,6.03
2022-08-24T23:25:00.199Z,5.77
2022-08-24T23:27:37.591Z,5.80
2022-08-24T23:30:12.035Z,6.33
2022-08-24T23:32:40.681Z,5.57
2022-08-24T23:35:09.870Z,6.20
2022-08-24T23:37:37.998Z,5.47
2022-08-24T23:40:07.009Z,5.87
2022-08-24T23:42:35.049Z,6.40
2022-08-24T23:45:03.132Z,5.63
2022-08-24T23:47:35.773Z,6.17
2022-08-24T23:50:06.879Z,5.83
2022-08-24T23:52:39.251Z,5.67
2022-08-24T23:55:21.092Z,5.80
2022-08-24T23:57:51.247Z,6.17
